Time;durP1;ratioP1;P1;durP2;ratioP2;P2;SDS_P1;SDS_P2;PMS_P1;PMS_P2;Temp;Humidity;BMP_temperature;BMP_pressure;BME280_temperature;BME280_humidity;BME280_pressure;Samples;Min_cycle;Max_cycle;Signal;HPM_P1;HPM_P2
2021/12/04 00:01:49;;;;;;;1.50;1.40;;;;;;;3.60;100.00;93955.53;5032034;28;20209;-62
2021/12/04 00:04:20;;;;;;;2.00;1.80;;;;;;;3.67;100.00;93952.50;5031797;28;20183;-60
2021/12/04 00:06:46;;;;;;;1.30;1.20;;;;;;;3.54;100.00;93948.41;5032043;28;20512;-63
2021/12/04 00:09:14;;;;;;;4.20;1.53;;;;;;;3.63;100.00;93957.84;5031674;28;20189;-63
2021/12/04 00:11:44;;;;;;;2.13;1.63;;;;;;;3.56;100.00;93942.38;5031784;28;20203;-61
2021/12/04 00:14:09;;;;;;;1.07;1.07;;;;;;;3.55;100.00;93943.31;5030301;28;20188;-60
2021/12/04 00:16:35;;;;;;;1.33;1.23;;;;;;;3.59;100.00;93958.97;5031864;28;20215;-64
2021/12/04 00:19:00;;;;;;;2.47;1.50;;;;;;;3.53;100.00;93961.91;5031698;28;20232;-61
2021/12/04 00:21:26;;;;;;;1.47;1.37;;;;;;;3.70;100.00;93956.50;5030105;28;20629;-61
2021/12/04 00:23:51;;;;;;;2.00;1.63;;;;;;;3.73;100.00;93951.28;5031449;28;20188;-65
2021/12/04 00:26:17;;;;;;;3.27;1.60;;;;;;;3.74;100.00;93957.88;5031526;28;20216;-62
2021/12/04 00:28:42;;;;;;;2.77;2.37;;;;;;;3.62;100.00;93961.25;5030278;28;20240;-61
2021/12/04 00:31:09;;;;;;;2.77;2.20;;;;;;;3.68;100.00;93954.09;5030674;28;20215;-61
2021/12/04 00:33:37;;;;;;;2.60;2.03;;;;;;;3.69;100.00;93959.94;5031624;28;20182;-62
2021/12/04 00:36:09;;;;;;;1.87;1.70;;;;;;;3.60;100.00;93965.56;5029958;28;20565;-59
2021/12/04 00:49:30;;;;;;;1.73;1.63;;;;;;;3.60;100.00;93968.09;5031207;28;20334;-61
2021/12/04 00:51:58;;;;;;;3.40;1.60;;;;;;;3.52;100.00;93963.59;5031432;28;20626;-60
2021/12/04 00:54:26;;;;;;;1.83;1.73;;;;;;;3.48;100.00;93971.44;5031209;28;20183;-64
2021/12/04 00:56:53;;;;;;;1.60;1.50;;;;;;;3.58;100.00;93969.91;5029900;28;20210;-61
2021/12/04 00:59:19;;;;;;;1.80;1.70;;;;;;;3.68;100.00;93955.81;5031326;28;20264;-61
2021/12/04 01:01:44;;;;;;;1.70;1.60;;;;;;;3.62;100.00;93946.97;5031134;28;20294;-63
2021/12/04 01:04:11;;;;;;;2.30;1.97;;;;;;;3.57;100.00;93950.72;5029643;28;20275;-62
2021/12/04 01:06:38;;;;;;;2.70;2.20;;;;;;;3.46;100.00;93948.13;5030925;28;20217;-63
2021/12/04 01:09:08;;;;;;;2.37;1.90;;;;;;;3.40;100.00;93944.34;5030963;28;20612;-60
2021/12/04 01:11:34;;;;;;;2.50;2.30;;;;;;;3.33;100.00;93938.16;5031174;28;20258;-62
2021/12/04 01:14:00;;;;;;;3.43;2.57;;;;;;;3.37;100.00;93927.78;5031115;28;20190;-60
2021/12/04 01:16:26;;;;;;;2.07;1.97;;;;;;;3.55;100.00;93909.84;5030958;28;20683;-60
2021/12/04 01:18:51;;;;;;;2.63;2.10;;;;;;;3.48;100.00;93911.16;5031096;28;20196;-61
2021/12/04 01:21:17;;;;;;;2.33;2.03;;;;;;;3.46;100.00;93905.44;5030881;28;20205;-61
2021/12/04 01:23:42;;;;;;;1.93;1.80;;;;;;;3.49;100.00;93906.06;5030817;28;20257;-60
2021/12/04 01:26:08;;;;;;;2.50;2.07;;;;;;;3.39;100.00;93898.31;5031081;28;20202;-61
2021/12/04 01:28:33;;;;;;;2.10;1.70;;;;;;;3.39;100.00;93902.56;5030738;28;20190;-60
2021/12/04 01:30:59;;;;;;;3.23;2.00;;;;;;;3.40;100.00;93907.47;5030975;28;20210;-60
2021/12/04 01:33:25;;;;;;;2.83;2.30;;;;;;;3.27;100.00;93898.41;5030911;28;20260;-62
2021/12/04 01:35:51;;;;;;;2.60;2.30;;;;;;;3.30;100.00;93891.44;5030870;28;20189;-62
2021/12/04 01:38:16;;;;;;;2.23;2.03;;;;;;;3.39;100.00;93895.81;5031059;28;20216;-61
2021/12/04 01:40:43;;;;;;;2.40;2.20;;;;;;;3.51;100.00;93895.88;5030796;28;20190;-60
2021/12/04 01:43:09;;;;;;;2.70;2.37;;;;;;;3.68;100.00;93910.56;5033193;28;20217;-60
2021/12/04 01:45:35;;;;;;;2.40;2.20;;;;;;;3.43;100.00;93909.75;5034458;28;20185;-63
2021/12/04 01:48:02;;;;;;;2.80;2.50;;;;;;;3.35;100.00;93901.97;5034812;28;20604;-61
2021/12/04 01:50:29;;;;;;;2.00;1.90;;;;;;;3.37;100.00;93899.38;5034527;28;20208;-61
2021/12/04 01:52:56;;;;;;;2.93;2.37;;;;;;;3.35;100.00;93903.69;5033073;28;20213;-63
2021/12/04 01:55:26;;;;;;;2.47;2.27;;;;;;;3.25;100.00;93897.69;5034296;28;20208;-61
2021/12/04 01:57:52;;;;;;;2.57;2.37;;;;;;;3.36;100.00;93905.28;5034675;28;20272;-61
2021/12/04 02:00:18;;;;;;;4.40;2.93;;;;;;;3.27;100.00;93893.38;5034543;28;20178;-63
2021/12/04 02:02:44;;;;;;;2.87;2.60;;;;;;;3.29;100.00;93907.41;5034605;28;20292;-60
2021/12/04 02:05:09;;;;;;;3.00;2.40;;;;;;;3.17;100.00;93913.25;5034187;28;20269;-62
2021/12/04 02:07:35;;;;;;;2.63;2.30;;;;;;;3.15;100.00;93911.78;5034385;28;20572;-62
2021/12/04 02:10:04;;;;;;;3.77;3.13;;;;;;;3.21;100.00;93909.63;5034011;28;20178;-62
2021/12/04 02:12:29;;;;;;;3.17;2.87;;;;;;;3.29;100.00;93906.63;5034198;28;20209;-61
2021/12/04 02:14:55;;;;;;;4.37;3.13;;;;;;;3.41;100.00;93916.59;5033909;28;20250;-64
2021/12/04 02:17:20;;;;;;;4.43;3.00;;;;;;;3.31;100.00;93913.13;5034452;28;20225;-62
2021/12/04 02:19:47;;;;;;;2.90;2.60;;;;;;;3.24;100.00;93913.66;5032664;28;20698;-63
2021/12/04 02:22:12;;;;;;;3.30;2.83;;;;;;;3.35;100.00;93909.50;5033916;28;20198;-59
2021/12/04 02:24:39;;;;;;;3.60;2.70;;;;;;;3.17;100.00;93898.19;5033703;28;20556;-61
2021/12/04 02:27:05;;;;;;;4.03;3.20;;;;;;;3.22;100.00;93898.69;5033552;28;20205;-61
2021/12/04 02:29:30;;;;;;;3.73;3.33;;;;;;;3.22;100.00;93903.72;5032223;28;20188;-60
2021/12/04 02:31:58;;;;;;;4.37;3.50;;;;;;;3.20;100.00;93892.19;5033704;28;20229;-64
2021/12/04 02:34:27;;;;;;;4.23;3.20;;;;;;;3.03;100.00;93892.53;5033874;28;20182;-62
2021/12/04 02:36:53;;;;;;;3.87;2.93;;;;;;;3.05;100.00;93899.03;5032237;28;20222;-59
2021/12/04 02:39:33;;;;;;;3.53;2.90;;;;;;;3.17;100.00;93910.75;5033248;28;20186;-61
2021/12/04 02:42:00;;;;;;;4.23;3.17;;;;;;;3.12;100.00;93909.47;5033894;28;20721;-61
2021/12/04 02:44:35;;;;;;;4.43;3.30;;;;;;;3.12;100.00;93910.28;5033623;28;20191;-61
2021/12/04 02:47:01;;;;;;;3.00;2.67;;;;;;;3.10;100.00;93899.53;5033315;28;20201;-60
2021/12/04 02:49:26;;;;;;;3.57;3.07;;;;;;;3.17;100.00;93902.44;5033311;28;20178;-62
2021/12/04 02:51:52;;;;;;;4.23;3.40;;;;;;;3.18;100.00;93911.56;5033392;28;20201;-60
2021/12/04 02:54:17;;;;;;;3.77;3.00;;;;;;;3.08;100.00;93903.88;5032616;28;20170;-60
2021/12/04 02:56:44;;;;;;;3.80;3.03;;;;;;;3.12;100.00;93897.72;5033144;28;20238;-60
2021/12/04 02:59:11;;;;;;;4.23;3.30;;;;;;;3.07;100.00;93897.22;5033403;28;20182;-60
2021/12/04 03:01:38;;;;;;;3.40;2.80;;;;;;;3.00;100.00;93888.53;5032837;28;20280;-61
2021/12/04 03:04:13;;;;;;;3.17;2.87;;;;;;;2.98;100.00;93892.84;5032830;28;20723;-63
2021/12/04 03:06:46;;;;;;;4.17;3.17;;;;;;;3.01;100.00;93887.59;5033176;28;20213;-63
2021/12/04 03:09:12;;;;;;;4.30;3.33;;;;;;;3.02;100.00;93889.22;5033008;28;20188;-60
2021/12/04 03:11:37;;;;;;;4.33;3.67;;;;;;;3.08;100.00;93888.81;5032925;28;20562;-64
2021/12/04 03:14:04;;;;;;;4.37;3.30;;;;;;;3.12;100.00;93889.38;5014808;28;20293;-64
2021/12/04 03:16:31;;;;;;;5.60;3.20;;;;;;;3.26;100.00;93885.03;5032547;28;20332;-62
2021/12/04 03:18:56;;;;;;;4.30;3.30;;;;;;;3.19;100.00;93891.38;5032883;28;20182;-60
2021/12/04 03:21:22;;;;;;;3.60;2.77;;;;;;;3.07;100.00;93897.22;5032801;28;20526;-59
2021/12/04 03:26:49;;;;;;;3.93;3.13;;;;;;;3.11;100.00;93888.56;5009671;28;20250;-61
2021/12/04 03:29:19;;;;;;;5.53;3.73;;;;;;;3.20;100.00;93884.63;5031164;28;20190;-63
2021/12/04 03:42:26;;;;;;;5.13;3.70;;;;;;;2.97;100.00;93888.72;5032515;28;20289;-61
2021/12/04 03:44:51;;;;;;;5.73;4.20;;;;;;;3.06;100.00;93898.13;5032195;28;20202;-63
2021/12/04 03:47:19;;;;;;;5.53;3.87;;;;;;;2.90;100.00;93902.59;5032447;28;20348;-61
2021/12/04 03:49:46;;;;;;;4.93;3.90;;;;;;;2.79;100.00;93897.47;5032316;28;20178;-64
2021/12/04 03:52:12;;;;;;;6.20;3.83;;;;;;;2.80;100.00;93895.78;5030931;28;20198;-62
2021/12/04 03:54:38;;;;;;;5.43;4.07;;;;;;;2.84;100.00;93899.69;5031911;28;20270;-60
2021/12/04 03:57:04;;;;;;;6.87;3.90;;;;;;;2.71;100.00;93897.19;5030543;28;20229;-62
2021/12/04 03:59:39;;;;;;;6.50;4.27;;;;;;;2.71;100.00;93901.44;5031804;28;20223;-62
2021/12/04 04:02:09;;;;;;;9.50;4.77;;;;;;;2.56;100.00;93908.25;5030350;28;20213;-60
2021/12/04 04:04:35;;;;;;;5.07;3.97;;;;;;;2.59;100.00;93903.03;5031897;28;20179;-63
2021/12/04 04:07:01;;;;;;;7.50;5.57;;;;;;;2.69;100.00;93903.22;5031859;28;20213;-61
2021/12/04 04:09:29;;;;;;;6.60;4.83;;;;;;;2.72;100.00;93911.34;5032054;28;20270;-61
2021/12/04 04:11:55;;;;;;;5.67;4.37;;;;;;;2.64;100.00;93918.59;5031752;28;20216;-64
2021/12/04 04:14:23;;;;;;;5.63;4.50;;;;;;;2.53;100.00;93914.25;5030505;28;20232;-61
2021/12/04 04:16:48;;;;;;;7.93;5.43;;;;;;;2.44;100.00;93927.38;5031695;28;20617;-65
2021/12/04 04:19:14;;;;;;;7.17;5.27;;;;;;;2.43;100.00;93925.00;5013720;28;20225;-63
2021/12/04 04:21:41;;;;;;;6.63;4.97;;;;;;;2.44;100.00;93919.09;5031829;28;20202;-60
2021/12/04 04:24:11;;;;;;;6.90;4.67;;;;;;;2.47;100.00;93916.38;5031826;28;20594;-60
2021/12/04 04:26:38;;;;;;;6.00;4.40;;;;;;;2.42;100.00;93923.41;5031869;28;20287;-63
2021/12/04 04:29:05;;;;;;;7.03;4.80;;;;;;;2.55;100.00;93921.69;5032225;28;20200;-63
2021/12/04 04:31:32;;;;;;;6.43;4.87;;;;;;;2.52;100.00;93931.94;5031932;28;20202;-61
2021/12/04 04:34:02;;;;;;;6.47;4.47;;;;;;;2.54;100.00;93927.63;5031778;28;20371;-65
2021/12/04 04:58:40;;;;;;;6.77;5.00;;;;;;;2.77;100.00;93957.00;5031226;28;20270;-62
2021/12/04 05:12:01;;;;;;;6.37;4.80;;;;;;;2.56;100.00;93944.16;5030182;28;20580;-62
2021/12/04 05:14:26;;;;;;;7.63;4.93;;;;;;;2.63;100.00;93944.56;5031026;28;20193;-62
2021/12/04 05:16:59;;;;;;;6.63;4.87;;;;;;;2.72;100.00;93943.97;5031089;28;20198;-64
2021/12/04 05:22:04;;;;;;;6.50;4.53;;;;;;;2.71;100.00;93944.06;5035744;28;20715;-63
2021/12/04 05:24:30;;;;;;;5.87;4.60;;;;;;;2.68;100.00;93927.50;5033930;28;20281;-62
2021/12/04 05:26:56;;;;;;;8.63;4.70;;;;;;;2.78;100.00;93937.72;5034298;28;20402;-65
2021/12/04 05:29:23;;;;;;;8.80;5.27;;;;;;;2.76;100.00;93935.34;5035216;28;20186;-62
2021/12/04 05:31:48;;;;;;;7.67;4.07;;;;;;;2.65;100.00;93937.72;5035382;28;20252;-64
2021/12/04 05:34:14;;;;;;;6.00;4.50;;;;;;;2.65;100.00;93929.44;5034994;28;20183;-61
2021/12/04 05:36:40;;;;;;;6.93;5.07;;;;;;;2.65;100.00;93940.25;5034728;28;20221;-63
2021/12/04 05:39:06;;;;;;;6.40;4.53;;;;;;;2.66;100.00;93936.03;5034815;28;20186;-63
2021/12/04 05:41:31;;;;;;;7.17;4.33;;;;;;;2.70;100.00;93933.22;5034894;28;20236;-62
2021/12/04 05:44:06;;;;;;;10.33;4.73;;;;;;;2.62;100.00;93940.47;5034247;28;20184;-62
2021/12/04 05:46:38;;;;;;;6.67;4.80;;;;;;;2.55;100.00;93944.25;5034322;28;20216;-60
2021/12/04 05:49:19;;;;;;;7.10;5.13;;;;;;;2.61;100.00;93941.34;5033279;28;20229;-62
2021/12/04 05:57:04;;;;;;;8.27;5.03;;;;;;;2.65;100.00;93942.75;5034278;28;20213;-62
2021/12/04 05:59:30;;;;;;;7.83;5.20;;;;;;;2.61;100.00;93938.84;5034245;28;20602;-64
2021/12/04 06:01:56;;;;;;;7.87;5.00;;;;;;;2.74;100.00;93938.84;5032934;28;20694;-62
2021/12/04 06:04:22;;;;;;;9.93;6.37;;;;;;;2.56;100.00;93936.63;5034525;28;20706;-63
2021/12/04 06:06:48;;;;;;;7.03;5.23;;;;;;;2.46;100.00;93942.38;5034121;28;20651;-65
2021/12/04 06:09:13;;;;;;;8.63;5.97;;;;;;;2.58;100.00;93951.59;5034161;28;20188;-63
2021/12/04 06:11:39;;;;;;;8.43;5.37;;;;;;;2.48;100.00;93953.88;5034020;28;20202;-62
2021/12/04 06:14:04;;;;;;;11.10;6.23;;;;;;;2.50;100.00;93958.81;5033933;28;20236;-61
2021/12/04 06:16:31;;;;;;;9.37;6.13;;;;;;;2.44;100.00;93970.03;5033811;28;20580;-60
2021/12/04 06:18:58;;;;;;;10.77;6.43;;;;;;;2.35;100.00;93967.31;5033890;28;20181;-64
2021/12/04 06:24:09;;;;;;;9.83;6.37;;;;;;;2.32;100.00;93962.50;5034088;28;20186;-60
2021/12/04 06:26:36;;;;;;;12.20;7.33;;;;;;;2.43;100.00;93960.09;5033724;28;20198;-63
2021/12/04 06:29:03;;;;;;;9.67;7.23;;;;;;;2.36;100.00;93961.41;5031207;28;20208;-62
2021/12/04 06:31:31;;;;;;;9.30;6.20;;;;;;;2.45;100.00;93959.09;5033635;28;20214;-61
2021/12/04 06:33:56;;;;;;;11.87;6.77;;;;;;;2.44;100.00;93974.25;5032787;28;20336;-63
2021/12/04 06:36:22;;;;;;;8.07;6.20;;;;;;;2.50;100.00;93968.84;5033477;28;20247;-62
2021/12/04 06:38:48;;;;;;;10.70;7.17;;;;;;;2.44;100.00;93971.75;5033664;28;20213;-63
2021/12/04 06:41:14;;;;;;;11.07;6.83;;;;;;;2.54;100.00;93973.53;5033544;28;20226;-60
2021/12/04 06:43:46;;;;;;;10.27;6.90;;;;;;;2.56;100.00;93978.47;5032599;28;20181;-63
2021/12/04 06:46:11;;;;;;;9.60;5.97;;;;;;;2.68;100.00;93977.69;5033999;28;20198;-61
2021/12/04 06:48:58;;;;;;;9.70;6.30;;;;;;;2.69;100.00;93981.78;5033794;28;20268;-63
2021/12/04 06:51:30;;;;;;;8.73;5.90;;;;;;;2.86;100.00;93986.50;5033409;28;20206;-63
2021/12/04 06:54:08;;;;;;;10.23;6.23;;;;;;;2.83;100.00;93979.19;5032359;28;20541;-62
2021/12/04 06:56:36;;;;;;;9.37;6.53;;;;;;;2.92;100.00;93983.59;5033316;28;20205;-60
2021/12/04 06:59:07;;;;;;;9.53;6.90;;;;;;;2.91;100.00;93971.16;5033063;28;20502;-61
2021/12/04 07:01:33;;;;;;;11.10;7.37;;;;;;;3.00;100.00;93983.91;5032965;28;20198;-62
2021/12/04 07:03:58;;;;;;;11.50;6.90;;;;;;;3.28;100.00;93986.16;5033248;28;20182;-61
2021/12/04 07:06:24;;;;;;;11.07;7.30;;;;;;;3.39;100.00;93978.69;5033322;28;20202;-61
2021/12/04 07:08:49;;;;;;;11.77;7.50;;;;;;;3.37;100.00;93985.53;5033023;28;20182;-61
2021/12/04 07:11:15;;;;;;;11.80;7.80;;;;;;;3.53;100.00;93985.31;5032016;28;20206;-63
2021/12/04 07:13:40;;;;;;;10.73;7.73;;;;;;;3.40;100.00;94002.94;5032942;28;20183;-62
2021/12/04 07:16:08;;;;;;;13.67;7.33;;;;;;;3.27;100.00;94003.84;5032666;28;20234;-63
2021/12/04 07:18:38;;;;;;;10.47;6.97;;;;;;;3.08;100.00;94009.28;5031591;28;20206;-60
2021/12/04 07:21:05;;;;;;;11.40;7.60;;;;;;;3.04;100.00;94007.91;5031514;28;20566;-59
2021/12/04 07:23:31;;;;;;;10.80;7.43;;;;;;;3.05;100.00;94013.72;5032874;28;20176;-62
2021/12/04 07:25:57;;;;;;;11.50;6.57;;;;;;;3.04;100.00;94015.41;5033013;28;20236;-62
2021/12/04 07:28:23;;;;;;;9.90;7.13;;;;;;;2.96;100.00;94011.81;5032614;28;20210;-63
2021/12/04 07:30:48;;;;;;;11.37;7.27;;;;;;;2.86;100.00;94003.28;5032724;28;20190;-60
2021/12/04 07:33:14;;;;;;;12.40;7.83;;;;;;;2.95;100.00;94011.00;5032652;28;20587;-62
2021/12/04 07:35:40;;;;;;;11.83;8.43;;;;;;;3.08;100.00;94008.47;5031401;28;20193;-64
2021/12/04 07:38:05;;;;;;;12.40;8.30;;;;;;;3.11;100.00;94005.78;5032253;28;20201;-65
2021/12/04 07:40:31;;;;;;;10.03;6.40;;;;;;;3.14;100.00;93998.03;5014188;28;20212;-62
2021/12/04 07:42:57;;;;;;;11.43;7.70;;;;;;;3.32;100.00;93990.09;5032346;28;20297;-62
2021/12/04 07:45:22;;;;;;;12.57;8.00;;;;;;;3.43;100.00;93981.81;5031026;28;20185;-61
2021/12/04 07:47:48;;;;;;;14.73;8.20;;;;;;;3.56;100.00;93981.78;5031121;28;20289;-64
2021/12/04 07:50:16;;;;;;;16.93;9.63;;;;;;;3.75;100.00;93970.38;5031302;28;20186;-64
2021/12/04 07:52:42;;;;;;;13.53;8.77;;;;;;;4.01;100.00;93961.81;5031225;28;20198;-64
2021/12/04 07:55:10;;;;;;;15.30;9.53;;;;;;;4.21;100.00;93967.94;5032321;28;20221;-63
2021/12/04 07:57:36;;;;;;;14.10;9.03;;;;;;;4.29;100.00;93960.66;5032423;28;20198;-66
2021/12/04 08:00:09;;;;;;;12.17;7.53;;;;;;;4.34;100.00;93957.81;5032270;28;20186;-61
2021/12/04 08:02:34;;;;;;;9.03;6.83;;;;;;;4.49;100.00;93966.75;5032360;28;20201;-63
2021/12/04 08:05:00;;;;;;;10.40;6.80;;;;;;;4.36;100.00;93961.00;5030374;28;20281;-62
2021/12/04 08:07:25;;;;;;;10.60;7.17;;;;;;;4.46;100.00;93962.75;5031808;28;20264;-63
2021/12/04 08:09:51;;;;;;;11.07;7.03;;;;;;;4.37;100.00;93953.34;5030522;28;20631;-62
2021/12/04 08:12:16;;;;;;;9.90;6.40;;;;;;;4.43;100.00;93944.56;5031750;28;20198;-62
2021/12/04 08:14:42;;;;;;;9.53;6.57;;;;;;;4.45;100.00;93945.25;5031924;28;20187;-63
2021/12/04 08:17:07;;;;;;;8.90;6.30;;;;;;;4.50;100.00;93958.31;5031617;28;20206;-61
2021/12/04 08:19:33;;;;;;;12.03;7.57;;;;;;;4.37;100.00;93943.28;5031609;28;20186;-63
2021/12/04 08:21:59;;;;;;;11.10;7.67;;;;;;;4.60;100.00;93959.25;5031694;28;20579;-60
2021/12/04 08:24:24;;;;;;;9.77;6.63;;;;;;;4.67;100.00;93958.66;5031826;28;20641;-60
2021/12/04 08:26:50;;;;;;;9.60;6.50;;;;;;;4.49;100.00;93962.53;5029785;28;20198;-63
2021/12/04 08:29:15;;;;;;;9.13;6.57;;;;;;;4.86;100.00;93980.78;5031637;28;20651;-60
2021/12/04 08:31:42;;;;;;;10.00;7.33;;;;;;;4.84;100.00;93968.31;5031608;28;20229;-60
2021/12/04 08:34:08;;;;;;;12.47;7.40;;;;;;;4.70;100.00;93953.44;5031466;28;20188;-63
2021/12/04 08:36:34;;;;;;;12.37;7.77;;;;;;;4.74;100.00;93969.91;5031365;28;20194;-61
2021/12/04 08:39:04;;;;;;;11.00;7.30;;;;;;;4.65;100.00;93957.97;5031348;28;20189;-60
2021/12/04 08:41:29;;;;;;;13.33;7.77;;;;;;;4.70;100.00;93967.72;5031720;28;20217;-61
2021/12/04 08:43:55;;;;;;;10.57;7.50;;;;;;;4.82;100.00;93965.13;5031423;28;20189;-64
2021/12/04 08:46:22;;;;;;;11.27;7.60;;;;;;;4.76;100.00;93955.50;5030074;28;20253;-65
2021/12/04 08:48:50;;;;;;;10.50;7.73;;;;;;;4.83;100.00;93958.34;5031312;28;20186;-62
2021/12/04 08:51:18;;;;;;;12.83;8.63;;;;;;;4.72;100.00;93956.63;5030918;28;20244;-65
2021/12/04 08:53:44;;;;;;;11.60;7.40;;;;;;;4.85;100.00;93954.00;5030808;28;20178;-63
2021/12/04 08:56:09;;;;;;;11.43;8.03;;;;;;;4.89;100.00;93946.09;5031540;28;20212;-61
2021/12/04 08:58:39;;;;;;;13.27;8.20;;;;;;;5.05;100.00;93941.53;5031442;28;20201;-64
2021/12/04 09:01:11;;;;;;;11.93;7.53;;;;;;;5.54;100.00;93948.72;5031616;28;20193;-62
2021/12/04 09:03:41;;;;;;;14.90;9.47;;;;;;;5.57;100.00;93955.25;5031262;28;20175;-62
2021/12/04 09:06:07;;;;;;;13.03;9.00;;;;;;;5.41;100.00;93947.25;5031480;28;20254;-61
2021/12/04 09:08:33;;;;;;;12.10;8.63;;;;;;;5.16;100.00;93937.41;5031327;28;20186;-62
2021/12/04 09:11:05;;;;;;;12.93;9.63;;;;;;;5.39;100.00;93944.84;5031523;28;20589;-63
2021/12/04 09:13:33;;;;;;;12.87;8.17;;;;;;;5.30;100.00;93952.28;5031455;28;20606;-61
2021/12/04 09:15:59;;;;;;;16.83;8.90;;;;;;;5.29;100.00;93949.00;5031545;28;20558;-61
2021/12/04 09:18:26;;;;;;;15.67;9.87;;;;;;;5.21;100.00;93930.31;5030994;28;20689;-62
2021/12/04 09:20:54;;;;;;;15.37;9.00;;;;;;;5.19;100.00;93927.94;5031400;28;20672;-64
2021/12/04 09:23:20;;;;;;;13.87;8.57;;;;;;;5.33;100.00;93926.88;5030918;28;20186;-61
2021/12/04 09:25:51;;;;;;;14.83;9.50;;;;;;;5.25;100.00;93932.50;5029748;28;20192;-60
2021/12/04 09:31:02;;;;;;;18.23;9.77;;;;;;;5.25;100.00;93934.22;5031248;28;20214;-63
2021/12/04 10:20:06;;;;;;;11.33;8.43;;;;;;;4.81;100.00;93923.22;5034477;28;20182;-63
2021/12/04 10:22:49;;;;;;;13.40;8.50;;;;;;;4.78;100.00;93917.63;5033174;28;20202;-62
2021/12/04 10:33:25;;;;;;;10.17;6.93;;;;;;;5.91;100.00;93936.63;5033508;28;20203;-61
2021/12/04 10:35:51;;;;;;;12.87;7.53;;;;;;;6.08;100.00;93920.94;5033552;28;20275;-61
2021/12/04 10:38:26;;;;;;;9.77;6.63;;;;;;;6.10;100.00;93903.97;5033389;28;20235;-64
2021/12/04 10:40:54;;;;;;;9.27;6.53;;;;;;;6.37;100.00;93903.50;5032327;28;20661;-61
2021/12/04 10:43:27;;;;;;;13.03;8.17;;;;;;;6.31;100.00;93924.16;5033402;28;20267;-61
2021/12/04 10:45:56;;;;;;;8.97;6.13;;;;;;;6.36;100.00;93932.19;5034061;28;20209;-62
2021/12/04 10:48:27;;;;;;;9.27;6.73;;;;;;;6.45;100.00;93937.28;5033512;28;20180;-60
2021/12/04 10:51:08;;;;;;;8.43;6.23;;;;;;;6.11;100.00;93923.25;5033163;28;20189;-61
2021/12/04 10:53:45;;;;;;;7.67;5.77;;;;;;;6.23;100.00;93924.78;5033544;28;20164;-64
2021/12/04 10:56:24;;;;;;;10.27;6.73;;;;;;;5.86;100.00;93916.78;5033222;28;20262;-63
2021/12/04 11:01:57;;;;;;;10.00;6.00;;;;;;;5.94;100.00;93903.56;5033340;28;20281;-62
2021/12/04 11:04:45;;;;;;;10.10;6.47;;;;;;;6.32;100.00;93928.31;5033464;28;20279;-60
2021/12/04 11:40:26;;;;;;;11.23;6.77;;;;;;;6.51;100.00;93898.94;5032494;28;20204;-62
2021/12/04 11:42:55;;;;;;;11.97;6.80;;;;;;;6.72;100.00;93893.88;5031590;28;20200;-62
2021/12/04 11:45:29;;;;;;;13.43;6.97;;;;;;;6.00;100.00;93867.00;5032189;28;20200;-62
2021/12/04 11:47:57;;;;;;;10.13;6.63;;;;;;;6.01;100.00;93871.91;5031366;28;20267;-62
2021/12/04 11:50:36;;;;;;;12.63;7.60;;;;;;;6.00;100.00;93880.38;5030213;28;20216;-63
2021/12/04 11:53:08;;;;;;;16.30;8.67;;;;;;;6.11;100.00;93880.34;5031341;28;20208;-61
2021/12/04 11:55:39;;;;;;;14.97;7.30;;;;;;;6.43;100.00;93860.91;5031916;28;20619;-65
2021/12/04 11:58:16;;;;;;;12.47;7.47;;;;;;;6.68;100.00;93895.84;5031366;28;20209;-62
2021/12/04 12:00:42;;;;;;;10.33;7.43;;;;;;;6.71;100.00;93903.16;5031746;28;20200;-63
2021/12/04 12:03:27;;;;;;;11.90;7.63;;;;;;;6.73;100.00;93916.47;5031287;28;20197;-61
2021/12/04 12:05:56;;;;;;;15.17;7.53;;;;;;;6.94;100.00;93921.50;5030949;28;20706;-63
2021/12/04 12:08:33;;;;;;;15.97;7.73;;;;;;;7.04;100.00;93914.75;5031109;28;20181;-64
2021/12/04 12:11:08;;;;;;;20.87;7.67;;;;;;;7.12;100.00;93904.81;5031591;28;20212;-62
2021/12/04 12:13:46;;;;;;;11.87;7.50;;;;;;;7.20;100.00;93897.38;5029779;28;20189;-61
2021/12/04 12:16:18;;;;;;;12.77;7.97;;;;;;;7.14;100.00;93892.03;5029644;28;20216;-60
2021/12/04 12:18:58;;;;;;;13.03;8.70;;;;;;;7.10;100.00;93903.31;5031093;28;20217;-62
2021/12/04 12:21:38;;;;;;;13.90;7.93;;;;;;;6.98;100.00;93889.19;5031315;28;20224;-63
2021/12/04 12:38:46;;;;;;;15.30;10.27;;;;;;;6.27;100.00;93887.50;5030736;28;20216;-63
2021/12/04 12:41:29;;;;;;;17.80;10.03;;;;;;;6.37;100.00;93888.34;4992554;28;1116711;-62
2021/12/04 12:43:57;;;;;;;15.87;10.27;;;;;;;6.57;100.00;93900.97;5031370;28;20222;-65
2021/12/04 12:46:49;;;;;;;16.03;10.07;;;;;;;6.50;100.00;93899.06;5031394;28;20250;-63
2021/12/04 12:49:26;;;;;;;14.63;9.60;;;;;;;6.12;100.00;93871.84;5031389;28;20197;-60
2021/12/04 12:52:00;;;;;;;16.20;9.23;;;;;;;5.97;100.00;93870.56;5031619;28;20219;-63
2021/12/04 12:55:05;;;;;;;15.77;11.13;;;;;;;5.92;100.00;93877.69;5031634;28;20268;-59
2021/12/04 12:57:36;;;;;;;17.40;9.63;;;;;;;6.29;100.00;93883.94;5025900;28;20239;-61
2021/12/04 13:14:28;;;;;;;20.03;11.03;;;;;;;6.56;100.00;93909.47;5031314;28;20236;-61
2021/12/04 13:16:59;;;;;;;18.37;11.13;;;;;;;6.62;100.00;93908.97;5029646;28;20216;-64
2021/12/04 13:19:26;;;;;;;14.47;9.73;;;;;;;6.81;100.00;93917.56;5031231;28;20257;-63
2021/12/04 13:21:56;;;;;;;18.17;11.57;;;;;;;6.61;100.00;93917.47;5030816;28;20200;-60
2021/12/04 13:24:27;;;;;;;17.13;10.80;;;;;;;6.56;100.00;93893.53;5031163;28;20189;-61
2021/12/04 13:26:55;;;;;;;19.47;11.67;;;;;;;6.64;100.00;93902.06;5030738;28;20559;-64
2021/12/04 13:29:26;;;;;;;18.83;11.47;;;;;;;6.81;100.00;93910.00;5031052;28;20557;-60
2021/12/04 13:31:55;;;;;;;18.27;10.67;;;;;;;7.08;100.00;93917.81;5031095;28;20203;-64
2021/12/04 13:34:29;;;;;;;20.97;10.67;;;;;;;7.15;100.00;93923.97;5029500;28;20247;-61
2021/12/04 13:36:58;;;;;;;18.63;10.60;;;;;;;6.85;100.00;93901.25;5029566;28;20274;-59
2021/12/04 13:39:23;;;;;;;17.17;10.23;;;;;;;6.85;100.00;93896.19;5033882;28;20267;-59
2021/12/04 13:41:52;;;;;;;18.20;11.27;;;;;;;6.65;100.00;93897.81;5035471;28;20214;-60
2021/12/04 13:44:19;;;;;;;18.70;10.30;;;;;;;6.65;100.00;93896.09;5035089;28;20662;-60
2021/12/04 13:46:50;;;;;;;17.83;10.43;;;;;;;6.45;100.00;93876.72;5034657;28;20212;-62
2021/12/04 13:49:19;;;;;;;19.47;10.17;;;;;;;6.26;100.00;93879.09;5033151;28;20195;-64
2021/12/04 13:51:55;;;;;;;18.00;10.80;;;;;;;6.23;100.00;93881.91;5034586;28;20579;-60
2021/12/04 13:54:21;;;;;;;16.23;10.00;;;;;;;6.36;100.00;93892.59;5034505;28;20341;-63
2021/12/04 13:56:47;;;;;;;20.07;12.07;;;;;;;6.24;100.00;93872.59;5034342;28;20234;-63
2021/12/04 13:59:14;;;;;;;19.60;10.73;;;;;;;6.43;100.00;93883.63;5033167;28;20694;-60
2021/12/04 14:01:42;;;;;;;19.50;10.30;;;;;;;6.72;100.00;93889.63;5034564;28;20583;-63
2021/12/04 14:04:16;;;;;;;18.53;10.63;;;;;;;6.77;100.00;93910.25;5034449;28;20540;-61
2021/12/04 14:07:07;;;;;;;15.43;9.83;;;;;;;6.69;100.00;93889.84;5033120;28;20218;-62
2021/12/04 14:09:36;;;;;;;21.10;12.00;;;;;;;6.40;100.00;93866.19;5031515;28;20272;-60
2021/12/04 14:12:05;;;;;;;17.73;10.23;;;;;;;6.61;100.00;93881.31;5034334;28;20206;-60
2021/12/04 14:14:32;;;;;;;17.97;10.50;;;;;;;6.59;100.00;93870.53;5034153;28;20186;-61
2021/12/04 14:17:11;;;;;;;18.10;10.40;;;;;;;6.84;100.00;93889.53;5034344;28;20213;-63
2021/12/04 14:19:36;;;;;;;17.13;10.93;;;;;;;6.78;100.00;93894.19;5034474;28;20185;-61
2021/12/04 14:22:10;;;;;;;17.27;10.80;;;;;;;6.70;100.00;93878.84;5034103;28;20247;-61
2021/12/04 14:24:50;;;;;;;20.63;12.40;;;;;;;6.60;100.00;93857.81;5034444;28;20213;-61
2021/12/04 14:27:26;;;;;;;20.53;11.37;;;;;;;6.54;100.00;93862.56;5033812;28;20300;-60
2021/12/04 14:29:57;;;;;;;19.43;11.23;;;;;;;6.45;100.00;93861.56;5034275;28;20184;-60
2021/12/04 14:32:25;;;;;;;23.17;12.77;;;;;;;6.39;100.00;93857.03;5034071;28;20744;-61
2021/12/04 14:35:00;;;;;;;22.37;12.90;;;;;;;6.21;100.00;93858.50;5034106;28;20200;-63
2021/12/04 14:37:27;;;;;;;25.00;11.77;;;;;;;6.34;100.00;93858.31;5034124;28;20263;-63
2021/12/04 14:39:53;;;;;;;20.87;12.27;;;;;;;6.60;100.00;93870.44;5033812;28;20556;-62
2021/12/04 14:42:25;;;;;;;18.83;11.80;;;;;;;6.69;100.00;93889.84;5033732;28;20216;-63
2021/12/04 14:44:54;;;;;;;21.97;13.47;;;;;;;6.65;100.00;93888.50;5032441;28;20800;-62
2021/12/04 14:47:21;;;;;;;21.90;13.53;;;;;;;6.71;100.00;93888.00;5033557;28;20212;-64